Time;durP1;ratioP1;P1;durP2;ratioP2;P2;SDS_P1;SDS_P2;PMS_P1;PMS_P2;Temp;Humidity;BMP_temperature;BMP_pressure;BME280_temperature;BME280_humidity;BME280_pressure;Samples;Min_cycle;Max_cycle;Signal;HPM_P1;HPM_P2
2022/07/01 00:02:19;;;;;;;41.37;26.37;;;;;;;;;;5339918;27;20024;-81
2022/07/01 00:04:50;;;;;;;37.83;26.25;;;;;;;;;;5337334;27;20394;-81
2022/07/01 00:07:21;;;;;;;38.63;24.45;;;;;;;;;;5341828;27;20024;-81
2022/07/01 00:09:52;;;;;;;36.10;23.33;;;;;;;;;;5337273;27;20058;-81
2022/07/01 00:12:24;;;;;;;39.30;25.83;;;;;;;;;;5340243;27;20336;-81
2022/07/01 00:14:55;;;;;;;42.17;24.93;;;;;;;;;;5336548;27;20042;-81
2022/07/01 00:17:26;;;;;;;37.40;24.27;;;;;;;;;;5338245;27;20678;-81
2022/07/01 00:19:57;;;;;;;42.03;25.30;;;;;;;;;;5339436;27;20050;-81
2022/07/01 00:22:28;;;;;;;44.83;25.90;;;;;;;;;;5341149;27;20467;-81
2022/07/01 00:25:00;;;;;;;50.85;26.98;;;;;;;;;;5333367;27;20058;-80
2022/07/01 00:27:31;;;;;;;40.17;24.73;;;;;;;;;;5338828;27;20113;-81
2022/07/01 00:30:02;;;;;;;43.03;26.10;;;;;;;;;;5339048;27;20035;-81
2022/07/01 00:32:34;;;;;;;43.10;26.88;;;;;;;;;;5343525;27;20031;-81
2022/07/01 00:35:05;;;;;;;44.60;26.65;;;;;;;;;;5340788;27;20041;-80
2022/07/01 00:37:38;;;;;;;51.25;27.92;;;;;;;;;;5342053;27;20020;-81
2022/07/01 00:40:09;;;;;;;43.15;25.77;;;;;;;;;;5335288;27;20054;-81
2022/07/01 00:42:41;;;;;;;50.15;27.67;;;;;;;;;;5341023;27;20028;-81
2022/07/01 00:45:13;;;;;;;51.35;27.23;;;;;;;;;;5336207;27;20024;-80
2022/07/01 00:47:44;;;;;;;42.80;24.25;;;;;;;;;;5338926;27;20441;-81
2022/07/01 00:50:16;;;;;;;41.85;26.08;;;;;;;;;;5343017;27;20032;-81
2022/07/01 00:52:47;;;;;;;47.60;27.00;;;;;;;;;;5341904;27;20075;-81
2022/07/01 00:55:18;;;;;;;44.07;25.23;;;;;;;;;;5340743;27;20063;-81
2022/07/01 00:57:49;;;;;;;32.87;21.67;;;;;;;;;;5341291;27;20260;-81
2022/07/01 01:00:24;;;;;;;44.30;26.47;;;;;;;;;;5347703;27;20269;-80
2022/07/01 01:02:55;;;;;;;46.08;27.27;;;;;;;;;;5343852;27;20250;-81
2022/07/01 01:05:26;;;;;;;41.55;25.75;;;;;;;;;;5339472;27;20039;-81
2022/07/01 01:07:58;;;;;;;47.55;28.83;;;;;;;;;;5349266;27;20134;-81
2022/07/01 01:10:30;;;;;;;45.40;27.38;;;;;;;;;;5342988;27;20124;-81
2022/07/01 01:13:04;;;;;;;44.38;27.95;;;;;;;;;;5345064;27;20039;-81
2022/07/01 01:15:35;;;;;;;43.42;27.88;;;;;;;;;;5339240;27;20093;-81
2022/07/01 01:18:06;;;;;;;45.15;28.20;;;;;;;;;;5350277;27;20027;-80
2022/07/01 01:20:38;;;;;;;50.70;28.15;;;;;;;;;;5349102;27;20031;-80
2022/07/01 01:23:09;;;;;;;46.53;27.73;;;;;;;;;;5344490;27;20024;-80
2022/07/01 01:25:40;;;;;;;49.10;28.35;;;;;;;;;;5346622;27;20081;-80
2022/07/01 01:28:12;;;;;;;45.15;27.83;;;;;;;;;;5344600;27;20024;-82
2022/07/01 01:30:43;;;;;;;46.20;29.60;;;;;;;;;;5346122;27;20032;-81
2022/07/01 01:33:14;;;;;;;46.77;28.10;;;;;;;;;;5344255;27;20027;-81
2022/07/01 01:35:46;;;;;;;47.13;29.17;;;;;;;;;;5340056;27;20341;-81
2022/07/01 01:38:17;;;;;;;47.13;27.50;;;;;;;;;;5344875;27;20269;-81
2022/07/01 01:40:49;;;;;;;59.65;31.15;;;;;;;;;;5335994;27;20051;-81
2022/07/01 01:43:20;;;;;;;42.85;26.00;;;;;;;;;;5341412;27;20046;-81
2022/07/01 01:45:52;;;;;;;47.60;29.73;;;;;;;;;;5338205;27;20031;-81
2022/07/01 01:48:23;;;;;;;54.80;30.30;;;;;;;;;;5339460;27;20435;-81
2022/07/01 01:50:54;;;;;;;48.03;30.17;;;;;;;;;;5340735;27;20357;-81
2022/07/01 01:53:25;;;;;;;53.00;30.80;;;;;;;;;;5334483;27;20241;-81
2022/07/01 01:55:57;;;;;;;46.55;28.00;;;;;;;;;;5340533;27;20374;-81
2022/07/01 01:58:28;;;;;;;52.47;30.80;;;;;;;;;;5339274;27;20088;-81
2022/07/01 02:00:59;;;;;;;49.80;31.60;;;;;;;;;;5340187;27;20028;-81
2022/07/01 02:03:30;;;;;;;53.03;28.48;;;;;;;;;;5341956;27;20245;-81
2022/07/01 02:06:02;;;;;;;52.00;30.30;;;;;;;;;;5333854;27;20443;-81
2022/07/01 02:08:33;;;;;;;50.05;30.30;;;;;;;;;;5340056;27;20364;-81
2022/07/01 02:11:04;;;;;;;52.07;30.57;;;;;;;;;;5345177;27;20035;-81
2022/07/01 02:13:36;;;;;;;51.63;29.80;;;;;;;;;;5343227;27;20232;-81
2022/07/01 02:16:07;;;;;;;49.47;28.98;;;;;;;;;;5343031;27;20039;-81
2022/07/01 02:18:38;;;;;;;47.13;27.30;;;;;;;;;;5344034;27;21437;-81
2022/07/01 02:21:10;;;;;;;48.58;31.08;;;;;;;;;;5343239;27;20686;-81
2022/07/01 02:23:41;;;;;;;48.10;29.03;;;;;;;;;;5342676;27;20380;-81
2022/07/01 02:26:12;;;;;;;45.20;28.48;;;;;;;;;;5340490;27;20301;-81
2022/07/01 02:28:44;;;;;;;50.10;29.60;;;;;;;;;;5345259;27;20065;-81
2022/07/01 02:31:15;;;;;;;46.88;29.38;;;;;;;;;;5336901;27;20027;-81
2022/07/01 02:33:46;;;;;;;45.58;28.65;;;;;;;;;;5343571;27;20035;-81
2022/07/01 02:36:18;;;;;;;47.03;28.67;;;;;;;;;;5338478;27;20028;-81
2022/07/01 02:38:49;;;;;;;49.77;30.57;;;;;;;;;;5335701;27;20019;-81
2022/07/01 02:41:20;;;;;;;44.63;29.63;;;;;;;;;;5338757;27;20478;-81
2022/07/01 02:43:51;;;;;;;50.42;32.17;;;;;;;;;;5339899;27;20333;-81
2022/07/01 02:46:22;;;;;;;45.97;29.57;;;;;;;;;;5337534;27;20063;-81
2022/07/01 02:48:54;;;;;;;47.90;29.95;;;;;;;;;;5340707;27;20028;-81
2022/07/01 02:51:25;;;;;;;45.00;28.70;;;;;;;;;;5340019;27;20104;-81
2022/07/01 02:53:56;;;;;;;48.50;31.17;;;;;;;;;;5341338;27;20709;-81
2022/07/01 02:56:27;;;;;;;51.43;31.73;;;;;;;;;;5336948;27;20386;-81
2022/07/01 02:58:58;;;;;;;51.33;30.70;;;;;;;;;;5344488;27;20102;-81
2022/07/01 03:01:30;;;;;;;48.67;30.53;;;;;;;;;;5339827;27;20031;-81
2022/07/01 03:04:01;;;;;;;48.08;30.60;;;;;;;;;;5342063;27;20269;-81
2022/07/01 03:06:32;;;;;;;47.90;30.55;;;;;;;;;;5338401;27;20039;-81
2022/07/01 03:09:03;;;;;;;49.27;30.33;;;;;;;;;;5342811;27;20028;-80
2022/07/01 03:11:34;;;;;;;57.20;31.23;;;;;;;;;;5338880;27;20085;-81
2022/07/01 03:14:06;;;;;;;60.67;33.30;;;;;;;;;;5336303;27;20627;-81
2022/07/01 03:16:37;;;;;;;59.00;34.90;;;;;;;;;;5339768;27;20053;-86
2022/07/01 03:19:09;;;;;;;64.90;34.77;;;;;;;;;;5351046;27;20278;-84
2022/07/01 03:21:40;;;;;;;65.72;34.30;;;;;;;;;;5347567;27;20274;-84
2022/07/01 03:24:12;;;;;;;54.45;30.83;;;;;;;;;;5348354;27;20309;-84
2022/07/01 03:26:43;;;;;;;54.13;30.77;;;;;;;;;;5348010;27;20060;-85
2022/07/01 03:29:14;;;;;;;54.70;29.52;;;;;;;;;;5348620;27;20114;-83
2022/07/01 03:31:45;;;;;;;56.37;34.63;;;;;;;;;;5349540;27;20044;-84
2022/07/01 03:34:17;;;;;;;50.40;31.70;;;;;;;;;;5358714;27;20031;-83
2022/07/01 03:36:48;;;;;;;49.13;31.42;;;;;;;;;;5347580;27;20040;-84
2022/07/01 03:39:19;;;;;;;54.63;36.08;;;;;;;;;;5349343;27;20050;-84
2022/07/01 03:41:50;;;;;;;55.70;35.78;;;;;;;;;;5356363;27;20026;-85
2022/07/01 03:44:21;;;;;;;59.43;35.20;;;;;;;;;;5346436;27;20024;-85
2022/07/01 03:46:53;;;;;;;60.33;36.47;;;;;;;;;;5363970;27;20280;-85
2022/07/01 03:49:24;;;;;;;56.20;35.00;;;;;;;;;;5367607;27;20039;-84
2022/07/01 03:51:55;;;;;;;60.65;36.20;;;;;;;;;;5367396;27;20091;-83
2022/07/01 03:54:29;;;;;;;62.00;37.37;;;;;;;;;;5352093;27;20051;-85
2022/07/01 03:57:02;;;;;;;59.30;38.83;;;;;;;;;;5352915;27;20261;-85
2022/07/01 03:59:35;;;;;;;64.80;37.15;;;;;;;;;;5356151;27;20077;-84
2022/07/01 04:02:07;;;;;;;60.90;37.00;;;;;;;;;;5346575;27;20026;-84
2022/07/01 04:04:38;;;;;;;59.60;38.88;;;;;;;;;;5347264;27;20020;-85
2022/07/01 04:07:11;;;;;;;62.40;39.43;;;;;;;;;;5366961;27;20027;-85
2022/07/01 04:09:42;;;;;;;63.75;39.28;;;;;;;;;;5371585;27;20300;-85
2022/07/01 04:12:13;;;;;;;62.05;39.95;;;;;;;;;;5356375;27;20079;-86
2022/07/01 04:14:45;;;;;;;67.65;40.70;;;;;;;;;;5346843;27;20053;-83
2022/07/01 04:17:16;;;;;;;65.97;43.55;;;;;;;;;;5353047;27;20404;-86
2022/07/01 04:19:47;;;;;;;67.65;42.00;;;;;;;;;;5348563;27;20042;-86
2022/07/01 04:22:35;;;;;;;66.70;39.17;;;;;;;;;;5347391;27;20109;-86
2022/07/01 04:25:07;;;;;;;55.95;36.45;;;;;;;;;;5340436;27;20387;-85
2022/07/01 04:27:38;;;;;;;51.30;32.97;;;;;;;;;;5340537;27;20052;-85
2022/07/01 04:30:09;;;;;;;50.70;32.27;;;;;;;;;;5341119;27;20050;-85
2022/07/01 04:32:44;;;;;;;52.70;33.00;;;;;;;;;;5341376;27;20027;-85
2022/07/01 04:35:15;;;;;;;49.70;32.53;;;;;;;;;;5341694;27;20046;-85
2022/07/01 04:37:46;;;;;;;48.13;30.25;;;;;;;;;;5340672;27;20510;-85
2022/07/01 04:40:17;;;;;;;42.23;29.93;;;;;;;;;;5342630;27;20138;-85
2022/07/01 04:42:48;;;;;;;40.58;26.95;;;;;;;;;;5338427;27;20289;-85
2022/07/01 04:45:20;;;;;;;40.17;27.67;;;;;;;;;;5340474;27;20031;-85
2022/07/01 04:47:51;;;;;;;42.50;27.92;;;;;;;;;;5345888;27;20353;-85
2022/07/01 04:50:22;;;;;;;37.20;25.90;;;;;;;;;;5339631;27;20038;-86
2022/07/01 04:52:53;;;;;;;35.63;25.30;;;;;;;;;;5341020;27;20277;-86
2022/07/01 04:55:25;;;;;;;37.90;25.40;;;;;;;;;;5339520;27;20261;-85
2022/07/01 04:57:56;;;;;;;34.78;24.13;;;;;;;;;;5339889;27;20356;-83
2022/07/01 05:00:27;;;;;;;35.60;25.23;;;;;;;;;;5341676;27;20184;-85
2022/07/01 05:02:58;;;;;;;31.80;20.58;;;;;;;;;;5341203;27;20032;-85
2022/07/01 05:05:29;;;;;;;27.77;21.37;;;;;;;;;;5340259;27;20076;-84
2022/07/01 05:08:01;;;;;;;34.47;21.37;;;;;;;;;;5339786;27;20270;-84
2022/07/01 05:10:32;;;;;;;24.77;19.58;;;;;;;;;;5339390;27;20270;-83
2022/07/01 05:13:04;;;;;;;24.67;20.42;;;;;;;;;;5338834;27;20036;-83
2022/07/01 05:15:36;;;;;;;22.60;18.83;;;;;;;;;;5338608;27;20031;-83
2022/07/01 05:23:47;;;;;;;20.88;17.38;;;;;;;;;;5334013;27;20103;-81
2022/07/01 05:26:18;;;;;;;21.57;15.83;;;;;;;;;;5336354;27;20457;-82
2022/07/01 05:28:49;;;;;;;21.77;17.33;;;;;;;;;;5336920;27;20289;-81
2022/07/01 05:31:21;;;;;;;21.57;17.13;;;;;;;;;;5339438;27;20296;-82
2022/07/01 05:33:52;;;;;;;21.42;17.25;;;;;;;;;;5335176;27;20020;-81
2022/07/01 05:36:23;;;;;;;20.67;16.65;;;;;;;;;;5337271;27;20130;-81
2022/07/01 05:38:55;;;;;;;21.93;16.97;;;;;;;;;;5335218;27;20092;-81
2022/07/01 05:41:26;;;;;;;25.30;18.38;;;;;;;;;;5330141;27;20335;-81
2022/07/01 05:43:57;;;;;;;23.88;17.58;;;;;;;;;;5341232;27;20061;-81
2022/07/01 05:46:28;;;;;;;22.83;17.48;;;;;;;;;;5338258;27;20034;-81
2022/07/01 05:48:59;;;;;;;24.23;17.43;;;;;;;;;;5340833;27;20340;-81
2022/07/01 05:51:31;;;;;;;19.70;16.23;;;;;;;;;;5341455;27;20446;-81
2022/07/01 05:54:02;;;;;;;21.20;16.73;;;;;;;;;;5340983;27;20028;-81
2022/07/01 05:56:33;;;;;;;24.73;17.75;;;;;;;;;;5339650;27;20020;-82
2022/07/01 05:59:05;;;;;;;20.48;15.98;;;;;;;;;;5340408;27;20038;-81
2022/07/01 06:01:36;;;;;;;22.37;16.30;;;;;;;;;;5340563;27;20031;-82
2022/07/01 06:04:07;;;;;;;19.30;15.90;;;;;;;;;;5338582;27;20057;-82
2022/07/01 06:06:38;;;;;;;16.60;13.53;;;;;;;;;;5335997;27;20339;-82
2022/07/01 06:09:09;;;;;;;17.17;13.70;;;;;;;;;;5339704;27;20285;-82
2022/07/01 06:11:40;;;;;;;18.40;14.27;;;;;;;;;;5340895;27;20063;-82
2022/07/01 06:14:12;;;;;;;18.53;14.07;;;;;;;;;;5338265;27;20415;-82
2022/07/01 06:16:43;;;;;;;16.73;13.27;;;;;;;;;;5339140;27;20035;-82
2022/07/01 06:19:14;;;;;;;15.63;13.50;;;;;;;;;;5331548;27;20036;-82
2022/07/01 06:21:45;;;;;;;17.47;13.37;;;;;;;;;;5333608;27;20028;-82
2022/07/01 06:24:17;;;;;;;14.68;12.73;;;;;;;;;;5336254;27;20111;-81
2022/07/01 06:26:48;;;;;;;12.67;10.97;;;;;;;;;;5332690;27;20035;-81
2022/07/01 06:29:19;;;;;;;14.67;11.40;;;;;;;;;;5339665;27;20386;-81
2022/07/01 06:31:50;;;;;;;15.60;11.37;;;;;;;;;;5340046;27;20066;-81
2022/07/01 06:34:21;;;;;;;17.50;11.17;;;;;;;;;;5344005;27;20632;-81
2022/07/01 06:36:53;;;;;;;16.37;10.80;;;;;;;;;;5338967;27;20391;-80
2022/07/01 06:39:24;;;;;;;13.07;10.03;;;;;;;;;;5344698;27;20293;-81
2022/07/01 06:41:55;;;;;;;17.17;11.30;;;;;;;;;;5351964;27;20207;-81
2022/07/01 06:44:27;;;;;;;13.05;10.38;;;;;;;;;;5342984;27;20032;-81
2022/07/01 06:46:58;;;;;;;12.50;9.57;;;;;;;;;;5348285;27;20048;-82
2022/07/01 06:49:29;;;;;;;10.47;8.70;;;;;;;;;;5342220;27;20036;-81
2022/07/01 06:52:00;;;;;;;11.93;8.10;;;;;;;;;;5341449;27;20383;-82
2022/07/01 06:54:32;;;;;;;10.68;8.00;;;;;;;;;;5347447;27;20253;-81
2022/07/01 06:57:04;;;;;;;14.50;7.80;;;;;;;;;;5357712;27;20028;-81
2022/07/01 06:59:35;;;;;;;13.65;7.57;;;;;;;;;;5353318;27;20027;-81
2022/07/01 07:02:07;;;;;;;9.13;7.07;;;;;;;;;;5351603;27;20028;-81
2022/07/01 07:04:38;;;;;;;11.02;6.65;;;;;;;;;;5349022;27;20088;-81
2022/07/01 07:07:09;;;;;;;10.57;5.75;;;;;;;;;;5349180;27;20446;-81
2022/07/01 07:09:41;;;;;;;8.52;5.43;;;;;;;;;;5345339;27;20038;-81
2022/07/01 07:12:12;;;;;;;8.83;5.60;;;;;;;;;;5348187;27;20023;-81
2022/07/01 07:14:43;;;;;;;8.17;5.17;;;;;;;;;;5342034;27;20369;-81
2022/07/01 07:17:14;;;;;;;11.05;4.53;;;;;;;;;;5330244;27;20355;-82
2022/07/01 07:19:45;;;;;;;6.30;4.43;;;;;;;;;;5347309;27;20426;-82
2022/07/01 07:22:16;;;;;;;5.80;3.50;;;;;;;;;;5331105;27;20062;-82
2022/07/01 07:24:48;;;;;;;7.63;3.60;;;;;;;;;;5346255;27;20776;-82
2022/07/01 07:27:19;;;;;;;6.37;3.43;;;;;;;;;;5346783;27;20378;-82
2022/07/01 07:29:50;;;;;;;5.97;3.25;;;;;;;;;;5347909;27;20031;-81
2022/07/01 07:32:21;;;;;;;5.03;2.50;;;;;;;;;;5337356;27;20031;-81
2022/07/01 07:34:53;;;;;;;5.63;2.78;;;;;;;;;;5343040;27;20675;-80
2022/07/01 07:37:24;;;;;;;5.30;2.47;;;;;;;;;;5346482;27;20394;-81
2022/07/01 07:39:55;;;;;;;7.77;3.00;;;;;;;;;;5347123;27;20063;-80
2022/07/01 07:42:27;;;;;;;8.90;2.90;;;;;;;;;;5347401;27;20298;-80
2022/07/01 07:44:58;;;;;;;6.85;2.70;;;;;;;;;;5345419;27;20031;-80
2022/07/01 07:47:29;;;;;;;7.07;2.07;;;;;;;;;;5346733;27;20050;-81
2022/07/01 07:50:01;;;;;;;5.23;1.83;;;;;;;;;;5344361;27;20027;-81
2022/07/01 07:52:32;;;;;;;3.92;1.67;;;;;;;;;;5326507;27;20475;-80
2022/07/01 07:55:04;;;;;;;4.27;1.40;;;;;;;;;;5324480;28;20035;-81
2022/07/01 07:57:36;;;;;;;6.25;1.77;;;;;;;;;;5325898;27;20073;-81
2022/07/01 08:00:08;;;;;;;4.93;1.55;;;;;;;;;;5332345;27;20099;-81
2022/07/01 08:02:40;;;;;;;4.20;1.20;;;;;;;;;;5346690;27;20031;-81
2022/07/01 08:05:12;;;;;;;5.78;1.20;;;;;;;;;;5339148;27;20102;-81
2022/07/01 08:07:43;;;;;;;4.43;1.38;;;;;;;;;;5325938;27;20082;-81
2022/07/01 08:10:14;;;;;;;3.70;1.20;;;;;;;;;;5325424;28;20028;-81
2022/07/01 08:12:46;;;;;;;4.68;1.15;;;;;;;;;;5325959;27;20685;-81
2022/07/01 08:15:17;;;;;;;5.25;1.27;;;;;;;;;;5330275;27;20436;-81
2022/07/01 08:17:48;;;;;;;2.00;0.87;;;;;;;;;;5343739;27;20027;-81
2022/07/01 08:20:19;;;;;;;4.38;1.15;;;;;;;;;;5341051;27;20491;-81
2022/07/01 08:22:50;;;;;;;3.13;1.07;;;;;;;;;;5343255;27;20039;-81
2022/07/01 08:25:22;;;;;;;3.63;1.50;;;;;;;;;;5343004;27;20032;-81
2022/07/01 08:27:53;;;;;;;4.07;1.00;;;;;;;;;;5342410;27;20043;-81
2022/07/01 08:30:24;;;;;;;3.33;1.07;;;;;;;;;;5341291;27;20043;-81
2022/07/01 08:32:55;;;;;;;3.03;0.80;;;;;;;;;;5345163;27;20058;-81
2022/07/01 08:35:27;;;;;;;2.57;1.00;;;;;;;;;;5344584;27;20031;-81
2022/07/01 08:37:58;;;;;;;3.38;0.82;;;;;;;;;;5332199;27;20027;-81
2022/07/01 08:40:30;;;;;;;4.32;1.40;;;;;;;;;;5339864;27;20956;-81
2022/07/01 08:43:02;;;;;;;2.83;1.10;;;;;;;;;;5344493;27;20122;-81
2022/07/01 08:45:37;;;;;;;3.25;1.00;;;;;;;;;;5345850;27;20035;-81
2022/07/01 08:48:08;;;;;;;7.07;1.40;;;;;;;;;;5341388;27;20028;-81
2022/07/01 08:50:40;;;;;;;2.23;0.80;;;;;;;;;;5343367;27;20027;-81
2022/07/01 08:53:12;;;;;;;4.57;1.15;;;;;;;;;;5335810;27;20154;-81
2022/07/01 08:58:33;;;;;;;4.20;1.23;;;;;;;;;;5330393;27;20032;-81
2022/07/01 09:01:14;;;;;;;2.03;1.20;;;;;;;;;;5343163;27;20435;-81
2022/07/01 09:03:46;;;;;;;4.30;1.20;;;;;;;;;;5346817;27;20446;-81
2022/07/01 09:06:25;;;;;;;4.20;1.92;;;;;;;;;;5346209;27;20055;-81
2022/07/01 09:09:09;;;;;;;4.10;1.23;;;;;;;;;;5344955;27;20031;-81
2022/07/01 09:11:58;;;;;;;5.07;1.33;;;;;;;;;;5345235;27;20468;-81
2022/07/01 09:14:31;;;;;;;2.95;1.00;;;;;;;;;;5345889;27;20082;-81
2022/07/01 09:17:03;;;;;;;5.95;1.30;;;;;;;;;;5347472;27;20023;-81
2022/07/01 09:19:36;;;;;;;5.15;1.55;;;;;;;;;;5349834;27;20039;-81
2022/07/01 09:22:07;;;;;;;4.05;1.20;;;;;;;;;;5348603;27;20098;-81
2022/07/01 09:24:41;;;;;;;2.53;0.97;;;;;;;;;;5341952;27;20032;-81
2022/07/01 09:27:13;;;;;;;5.10;1.10;;;;;;;;;;5337499;27;20043;-81
2022/07/01 09:29:46;;;;;;;2.65;1.30;;;;;;;;;;5348264;27;20023;-81
2022/07/01 09:32:18;;;;;;;1.88;0.80;;;;;;;;;;5349604;27;20023;-81
2022/07/01 09:34:53;;;;;;;4.55;1.02;;;;;;;;;;5349531;27;20032;-82
2022/07/01 09:37:25;;;;;;;3.53;1.23;;;;;;;;;;5347842;27;20027;-81
2022/07/01 09:39:57;;;;;;;2.65;0.80;;;;;;;;;;5350095;27;20547;-81
2022/07/01 09:42:28;;;;;;;2.42;1.30;;;;;;;;;;5332410;27;20471;-81
2022/07/01 09:45:02;;;;;;;3.88;1.20;;;;;;;;;;5335488;27;20031;-81
2022/07/01 09:47:34;;;;;;;4.22;1.25;;;;;;;;;;5360976;27;20086;-79
2022/07/01 09:50:07;;;;;;;2.67;1.08;;;;;;;;;;5362534;27;20092;-80
2022/07/01 09:52:38;;;;;;;2.95;1.45;;;;;;;;;;5334385;27;20094;-81
2022/07/01 09:55:12;;;;;;;3.55;1.08;;;;;;;;;;5335290;27;20035;-81
2022/07/01 09:57:43;;;;;;;3.83;1.00;;;;;;;;;;5342872;27;20063;-82
2022/07/01 10:00:14;;;;;;;5.73;1.30;;;;;;;;;;5341849;27;20058;-82
2022/07/01 10:02:46;;;;;;;2.95;0.98;;;;;;;;;;5336004;27;20119;-82
2022/07/01 10:05:20;;;;;;;2.53;0.60;;;;;;;;;;5348999;27;20393;-81
2022/07/01 10:08:08;;;;;;;4.10;1.02;;;;;;;;;;5349557;27;20062;-81
2022/07/01 10:10:51;;;;;;;2.67;0.80;;;;;;;;;;5343946;27;20052;-82
2022/07/01 10:13:25;;;;;;;4.32;0.80;;;;;;;;;;5346018;27;20031;-82
2022/07/01 10:15:59;;;;;;;3.42;0.77;;;;;;;;;;5347409;27;20085;-82
2022/07/01 10:18:30;;;;;;;4.38;1.23;;;;;;;;;;5338940;27;20570;-81
2022/07/01 10:21:03;;;;;;;2.43;0.80;;;;;;;;;;5342372;27;20113;-81
2022/07/01 10:23:39;;;;;;;3.53;0.93;;;;;;;;;;5341380;27;21105;-82
2022/07/01 10:26:13;;;;;;;2.38;1.10;;;;;;;;;;5342963;27;20067;-82
2022/07/01 10:28:46;;;;;;;3.65;1.10;;;;;;;;;;5347400;27;20032;-81
2022/07/01 10:31:17;;;;;;;4.28;0.95;;;;;;;;;;5338104;27;20101;-81
2022/07/01 10:33:48;;;;;;;3.20;0.90;;;;;;;;;;5343454;27;20023;-82
2022/07/01 10:36:20;;;;;;;2.60;0.80;;;;;;;;;;5343798;27;20035;-82
2022/07/01 10:39:00;;;;;;;2.57;0.97;;;;;;;;;;5343726;27;20289;-81
2022/07/01 10:41:32;;;;;;;6.65;1.05;;;;;;;;;;5345694;27;20080;-81
2022/07/01 10:44:08;;;;;;;2.90;0.90;;;;;;;;;;5343777;27;20031;-81
2022/07/01 10:46:45;;;;;;;3.92;1.00;;;;;;;;;;5341886;27;20035;-82
2022/07/01 10:49:18;;;;;;;3.72;1.05;;;;;;;;;;5343990;27;20032;-82
2022/07/01 10:51:49;;;;;;;2.75;0.75;;;;;;;;;;5345429;27;20024;-82
2022/07/01 10:54:36;;;;;;;5.82;1.30;;;;;;;;;;5341652;27;20035;-82
2022/07/01 10:57:16;;;;;;;4.15;0.60;;;;;;;;;;5341678;27;20028;-81
2022/07/01 11:00:00;;;;;;;3.92;0.70;;;;;;;;;;5350104;27;20047;-82
2022/07/01 11:02:34;;;;;;;4.63;1.17;;;;;;;;;;5343511;27;20034;-82
2022/07/01 11:05:09;;;;;;;5.30;1.07;;;;;;;;;;5340557;27;20491;-82
2022/07/01 11:07:45;;;;;;;2.30;0.68;;;;;;;;;;5337354;27;20028;-82
2022/07/01 11:10:18;;;;;;;5.75;1.00;;;;;;;;;;5347102;27;20102;-82
2022/07/01 11:12:51;;;;;;;4.63;0.90;;;;;;;;;;5342658;27;20551;-82
2022/07/01 11:15:22;;;;;;;3.47;1.05;;;;;;;;;;5339724;27;20020;-82
2022/07/01 11:17:55;;;;;;;4.47;1.00;;;;;;;;;;5338240;27;20090;-82
2022/07/01 11:20:29;;;;;;;2.95;0.85;;;;;;;;;;5334469;27;20032;-82
2022/07/01 11:23:00;;;;;;;3.22;0.80;;;;;;;;;;5347764;27;20026;-83
2022/07/01 11:25:31;;;;;;;2.42;0.55;;;;;;;;;;5335860;27;20032;-82
2022/07/01 11:28:02;;;;;;;1.73;0.70;;;;;;;;;;5334954;27;20058;-82
2022/07/01 11:30:34;;;;;;;2.63;0.80;;;;;;;;;;5347359;27;20277;-82
2022/07/01 11:33:05;;;;;;;2.57;0.90;;;;;;;;;;5352957;27;20278;-82
2022/07/01 11:41:20;;;;;;;8.25;1.00;;;;;;;;;;5336325;27;20040;-81
2022/07/01 11:43:51;;;;;;;;;;;;;;;;;;5340968;27;20023;-81
2022/07/01 11:46:23;;;;;;;2.83;0.70;;;;;;;;;;5346653;27;20432;-81
2022/07/01 11:48:55;;;;;;;2.50;0.80;;;;;;;;;;5345280;27;20375;-82
2022/07/01 11:51:27;;;;;;;5.38;0.93;;;;;;;;;;5347372;27;20134;-82
2022/07/01 11:53:58;;;;;;;2.13;0.80;;;;;;;;;;5346396;27;20051;-82
2022/07/01 11:56:30;;;;;;;2.73;0.90;;;;;;;;;;5337843;27;20028;-83
2022/07/01 11:59:02;;;;;;;1.83;0.70;;;;;;;;;;5326011;27;20059;-83
2022/07/01 12:01:50;;;;;;;1.20;0.63;;;;;;;;;;5405644;27;20403;-83
2022/07/01 12:04:21;;;;;;;4.43;0.88;;;;;;;;;;5364599;27;20031;-82
2022/07/01 12:06:53;;;;;;;2.83;0.73;;;;;;;;;;5346555;27;20019;-84
2022/07/01 12:09:25;;;;;;;2.78;0.73;;;;;;;;;;5365181;27;20027;-82
2022/07/01 12:11:56;;;;;;;2.85;0.70;;;;;;;;;;5378452;27;20038;-82
2022/07/01 12:14:30;;;;;;;3.65;0.90;;;;;;;;;;5368029;27;20153;-82
2022/07/01 12:17:03;;;;;;;4.35;0.70;;;;;;;;;;5384671;27;20030;-82
2022/07/01 12:19:36;;;;;;;3.20;0.80;;;;;;;;;;5386652;27;20031;-82
2022/07/01 12:22:08;;;;;;;3.13;0.93;;;;;;;;;;5385247;27;20382;-83
2022/07/01 12:24:40;;;;;;;5.07;0.95;;;;;;;;;;5378279;27;20032;-83
2022/07/01 12:27:11;;;;;;;2.83;0.70;;;;;;;;;;5364391;27;20027;-83
2022/07/01 12:29:42;;;;;;;2.65;0.70;;;;;;;;;;5362950;27;20054;-83
2022/07/01 12:32:14;;;;;;;3.17;1.15;;;;;;;;;;5366419;27;20019;-83
2022/07/01 12:34:50;;;;;;;3.22;0.70;;;;;;;;;;5397041;27;20027;-80
2022/07/01 12:37:30;;;;;;;3.95;0.82;;;;;;;;;;5397000;27;20114;-81
2022/07/01 12:40:06;;;;;;;3.17;0.63;;;;;;;;;;5395260;27;20451;-82
2022/07/01 12:42:40;;;;;;;3.28;0.82;;;;;;;;;;5394641;27;20011;-81
2022/07/01 12:45:15;;;;;;;3.65;0.77;;;;;;;;;;5386634;27;20432;-83
2022/07/01 12:48:07;;;;;;;3.07;1.10;;;;;;;;;;5365586;27;20035;-83
2022/07/01 12:50:38;;;;;;;4.38;0.93;;;;;;;;;;5385053;27;20063;-83
2022/07/01 12:53:11;;;;;;;2.77;0.73;;;;;;;;;;5386086;27;20038;-83
2022/07/01 12:55:46;;;;;;;3.28;0.70;;;;;;;;;;5367165;27;20046;-83
2022/07/01 12:58:19;;;;;;;5.25;1.27;;;;;;;;;;5385571;27;20057;-83
2022/07/01 13:00:57;;;;;;;3.35;0.70;;;;;;;;;;5362239;27;20040;-83
2022/07/01 13:03:29;;;;;;;3.78;1.00;;;;;;;;;;5347768;27;20391;-83
2022/07/01 13:06:00;;;;;;;6.72;0.90;;;;;;;;;;5341981;27;20023;-83
2022/07/01 13:08:31;;;;;;;4.53;0.80;;;;;;;;;;5342090;27;20031;-82
2022/07/01 13:11:03;;;;;;;3.03;1.27;;;;;;;;;;5341329;27;20036;-81
2022/07/01 13:13:34;;;;;;;1.88;0.70;;;;;;;;;;5323945;27;20035;-82
2022/07/01 13:16:05;;;;;;;4.90;1.10;;;;;;;;;;5348491;27;20081;-83
2022/07/01 13:18:37;;;;;;;3.85;1.05;;;;;;;;;;5338040;27;20465;-82
2022/07/01 13:21:08;;;;;;;3.30;0.75;;;;;;;;;;5349037;27;20027;-82
2022/07/01 13:23:39;;;;;;;7.20;1.25;;;;;;;;;;5344153;27;20023;-81
2022/07/01 13:26:10;;;;;;;6.50;1.23;;;;;;;;;;5331071;27;20019;-82
2022/07/01 13:28:41;;;;;;;3.43;0.87;;;;;;;;;;5349734;27;20425;-82
2022/07/01 13:31:13;;;;;;;4.00;1.00;;;;;;;;;;5348747;27;20312;-82
2022/07/01 13:33:44;;;;;;;2.07;0.83;;;;;;;;;;5330397;27;20096;-82
2022/07/01 13:36:15;;;;;;;3.67;1.10;;;;;;;;;;5328143;27;20340;-82
2022/07/01 13:38:48;;;;;;;2.47;0.95;;;;;;;;;;5349667;27;20016;-82
2022/07/01 13:41:21;;;;;;;3.63;1.05;;;;;;;;;;5349357;27;20023;-82
2022/07/01 13:43:52;;;;;;;3.65;0.80;;;;;;;;;;5331611;27;20020;-82
2022/07/01 13:46:23;;;;;;;2.80;1.10;;;;;;;;;;5328244;27;20081;-82
2022/07/01 13:48:54;;;;;;;5.20;0.90;;;;;;;;;;5329901;27;20034;-82
2022/07/01 13:51:26;;;;;;;3.13;0.80;;;;;;;;;;5323978;27;20035;-82
2022/07/01 13:53:58;;;;;;;1.75;0.93;;;;;;;;;;5330649;27;20277;-81
2022/07/01 13:56:29;;;;;;;3.90;0.80;;;;;;;;;;5348946;27;20078;-81
2022/07/01 13:59:00;;;;;;;5.23;0.77;;;;;;;;;;5349338;27;20024;-82
2022/07/01 14:01:34;;;;;;;3.90;0.85;;;;;;;;;;5331374;27;20123;-82
2022/07/01 14:04:05;;;;;;;4.13;1.00;;;;;;;;;;5314780;27;20359;-82
2022/07/01 14:06:37;;;;;;;1.55;0.63;;;;;;;;;;5349465;27;20035;-82
2022/07/01 14:09:08;;;;;;;1.90;0.77;;;;;;;;;;5317408;27;20034;-82
2022/07/01 14:11:39;;;;;;;2.65;0.90;;;;;;;;;;5328754;27;20316;-82
2022/07/01 14:14:10;;;;;;;5.70;1.10;;;;;;;;;;5309956;28;20020;-82
2022/07/01 14:16:42;;;;;;;2.63;0.80;;;;;;;;;;5327723;28;20016;-82
2022/07/01 14:19:13;;;;;;;2.05;0.80;;;;;;;;;;5316291;27;20070;-82
2022/07/01 14:21:44;;;;;;;2.23;0.80;;;;;;;;;;5351160;27;20032;-82
2022/07/01 14:24:15;;;;;;;4.13;0.98;;;;;;;;;;5349863;27;20613;-81
2022/07/01 14:26:47;;;;;;;3.83;1.10;;;;;;;;;;5316055;28;20027;-82
2022/07/01 14:29:18;;;;;;;3.75;0.80;;;;;;;;;;5332926;28;20020;-81
2022/07/01 14:31:49;;;;;;;5.05;0.85;;;;;;;;;;5331185;28;20032;-82
2022/07/01 14:34:20;;;;;;;2.03;0.63;;;;;;;;;;5320421;27;20385;-82
2022/07/01 14:36:52;;;;;;;2.30;0.70;;;;;;;;;;5351378;27;20055;-82
2022/07/01 14:39:23;;;;;;;2.83;0.88;;;;;;;;;;5349523;27;20327;-82
2022/07/01 14:41:55;;;;;;;3.15;0.77;;;;;;;;;;5333256;28;20072;-82
2022/07/01 14:44:26;;;;;;;2.88;0.80;;;;;;;;;;5335484;27;20080;-82
2022/07/01 14:46:57;;;;;;;2.13;0.80;;;;;;;;;;5354202;27;20028;-81
2022/07/01 14:49:28;;;;;;;3.93;1.30;;;;;;;;;;5337309;28;20175;-82
2022/07/01 14:52:00;;;;;;;3.43;0.90;;;;;;;;;;5332203;28;20036;-81
2022/07/01 14:54:31;;;;;;;2.37;1.10;;;;;;;;;;5317440;28;20016;-80
2022/07/01 14:57:02;;;;;;;2.70;1.40;;;;;;;;;;5356979;27;20269;-81
2022/07/01 14:59:33;;;;;;;3.72;1.17;;;;;;;;;;5364791;27;20039;-81
2022/07/01 15:02:05;;;;;;;2.25;1.15;;;;;;;;;;5341289;27;20036;-82
2022/07/01 15:04:56;;;;;;;4.28;1.27;;;;;;;;;;5341743;27;20049;-82
2022/07/01 15:07:33;;;;;;;3.80;1.23;;;;;;;;;;5333739;27;20039;-82
2022/07/01 15:10:04;;;;;;;3.40;1.10;;;;;;;;;;5347089;27;20097;-82
2022/07/01 15:12:35;;;;;;;5.05;1.27;;;;;;;;;;5347646;27;20775;-82
2022/07/01 15:15:08;;;;;;;3.55;1.50;;;;;;;;;;5324540;28;20028;-83